createdAt,value
2022-11-29T00:00:02.893Z,19.700001
2022-11-29T00:01:07.216Z,19.700001
2022-11-29T00:02:15.667Z,19.700001
2022-11-29T00:03:23.948Z,19.700001
2022-11-29T00:04:32.442Z,19.200001
2022-11-29T00:05:40.769Z,19.200001
2022-11-29T00:06:49.129Z,19.200001
2022-11-29T00:07:57.647Z,19.200001
2022-11-29T00:09:05.990Z,19.200001
2022-11-29T00:10:14.324Z,19.200001
2022-11-29T00:11:22.880Z,18
2022-11-29T00:12:31.205Z,18
2022-11-29T00:13:39.547Z,18
2022-11-29T00:14:48.087Z,16.6
2022-11-29T00:15:56.430Z,16.6
2022-11-29T00:17:04.804Z,16.6
2022-11-29T00:18:13.308Z,16.299999
2022-11-29T00:19:21.648Z,16.299999
2022-11-29T00:20:29.996Z,16.299999
2022-11-29T00:21:38.522Z,17.200001
2022-11-29T00:22:46.894Z,17.200001
2022-11-29T00:23:55.197Z,17.200001
2022-11-29T00:25:03.731Z,17.1
2022-11-29T00:26:12.062Z,17.1
2022-11-29T00:27:20.395Z,17.1
2022-11-29T00:28:28.956Z,17
2022-11-29T00:29:37.304Z,17
2022-11-29T00:30:45.737Z,17
2022-11-29T00:31:54.170Z,16.4
2022-11-29T00:33:02.530Z,16.4
2022-11-29T00:34:10.861Z,16.4
2022-11-29T00:35:19.409Z,15
2022-11-29T00:36:27.734Z,15
2022-11-29T00:37:36.085Z,15
2022-11-29T00:38:44.661Z,14.4
2022-11-29T00:39:52.973Z,14.4
2022-11-29T00:41:01.312Z,14.4
2022-11-29T00:42:09.852Z,14.4
2022-11-29T00:43:18.194Z,14.4
2022-11-29T00:44:26.533Z,14.4
2022-11-29T00:45:35.107Z,13.8
2022-11-29T00:46:43.422Z,13.8
2022-11-29T00:47:51.766Z,13.8
2022-11-29T00:49:00.304Z,14.6
2022-11-29T00:50:08.647Z,14.6
2022-11-29T00:51:16.980Z,14.6
2022-11-29T00:52:25.527Z,15.6
2022-11-29T00:53:33.862Z,15.6
2022-11-29T00:54:42.537Z,15.6
2022-11-29T00:55:50.729Z,15.2
2022-11-29T00:56:59.070Z,15.2
2022-11-29T00:58:07.419Z,15.2
2022-11-29T00:59:15.964Z,14.7
2022-11-29T01:00:24.288Z,14.7
2022-11-29T01:01:32.648Z,14.7
2022-11-29T01:02:41.213Z,15.4
2022-11-29T01:03:49.509Z,15.4
2022-11-29T01:04:57.853Z,15.4
2022-11-29T01:06:06.405Z,15.3
2022-11-29T01:07:14.769Z,15.3
2022-11-29T01:08:23.067Z,15.3
2022-11-29T01:09:31.601Z,15.8
2022-11-29T01:10:39.973Z,15.8
2022-11-29T01:11:48.295Z,15.8
2022-11-29T01:12:56.844Z,15.6
2022-11-29T01:14:05.174Z,15.6
2022-11-29T01:15:13.515Z,15.6
2022-11-29T01:16:22.095Z,15
2022-11-29T01:17:30.394Z,15
2022-11-29T01:18:38.743Z,15
2022-11-29T01:19:50.715Z,15.1
2022-11-29T01:20:55.611Z,15.1
2022-11-29T01:22:03.937Z,15.1
2022-11-29T01:23:12.501Z,15
2022-11-29T01:24:20.836Z,15
2022-11-29T01:25:29.167Z,15
2022-11-29T01:26:37.762Z,14.4
2022-11-29T01:27:46.069Z,14.4
2022-11-29T01:28:54.391Z,14.4
2022-11-29T01:30:02.932Z,14.3
2022-11-29T01:31:11.337Z,14.3
2022-11-29T01:32:19.600Z,14.3
2022-11-29T01:33:28.148Z,13.7
2022-11-29T01:34:36.489Z,13.7
2022-11-29T01:35:44.821Z,13.7
2022-11-29T01:36:53.366Z,14.8
2022-11-29T01:38:01.733Z,14.8
2022-11-29T01:39:10.054Z,14.8
2022-11-29T01:40:18.590Z,13.7
2022-11-29T01:41:26.929Z,13.7
2022-11-29T01:42:35.300Z,13.7
2022-11-29T01:43:43.812Z,13.4
2022-11-29T01:44:52.135Z,13.4
2022-11-29T01:46:00.507Z,13.4
2022-11-29T01:47:09.015Z,13.8
2022-11-29T01:48:17.360Z,13.8
2022-11-29T01:49:25.693Z,13.8
2022-11-29T01:50:34.236Z,14.2
2022-11-29T01:51:42.565Z,14.2
2022-11-29T01:52:50.910Z,14.2
2022-11-29T01:53:59.439Z,13.7
2022-11-29T01:55:07.775Z,13.7
2022-11-29T01:56:16.181Z,13.7
2022-11-29T01:57:24.653Z,14.4
2022-11-29T01:58:33.021Z,14.4
2022-11-29T01:59:41.327Z,14.4
2022-11-29T02:00:49.863Z,13.6
2022-11-29T02:01:58.198Z,13.6
2022-11-29T02:03:06.544Z,13.6
2022-11-29T02:04:15.090Z,13.4
2022-11-29T02:05:23.413Z,13.4
2022-11-29T02:06:31.749Z,13.4
2022-11-29T02:07:40.329Z,13.1
2022-11-29T02:08:48.621Z,13.1
2022-11-29T02:09:56.953Z,13.1
2022-11-29T02:11:05.502Z,13.9
2022-11-29T02:12:13.848Z,13.9
2022-11-29T02:13:22.191Z,13.9
2022-11-29T02:14:30.772Z,13.9
2022-11-29T02:15:39.128Z,13.9
2022-11-29T02:16:47.705Z,13.9
2022-11-29T02:17:55.972Z,13.7
2022-11-29T02:19:04.305Z,13.7
2022-11-29T02:20:12.659Z,13.7
2022-11-29T02:21:21.189Z,13.4
2022-11-29T02:22:29.525Z,13.4
2022-11-29T02:23:37.871Z,13.4
2022-11-29T02:24:46.659Z,13.6
2022-11-29T02:25:54.731Z,13.6
2022-11-29T02:27:03.064Z,13.6
2022-11-29T02:28:11.622Z,12.9
2022-11-29T02:29:19.947Z,12.9
2022-11-29T02:30:28.305Z,12.9
2022-11-29T02:31:36.822Z,13.7
2022-11-29T02:32:45.164Z,13.7
2022-11-29T02:33:53.491Z,13.7
2022-11-29T02:35:02.032Z,13.8
2022-11-29T02:36:10.368Z,13.8
2022-11-29T02:37:18.704Z,13.8
2022-11-29T02:38:27.255Z,13.5
2022-11-29T02:39:35.602Z,13.5
2022-11-29T02:40:43.938Z,13.5
2022-11-29T02:41:52.481Z,12.8
2022-11-29T02:43:00.827Z,12.8
2022-11-29T02:44:09.153Z,12.8
2022-11-29T02:45:17.688Z,12.9
2022-11-29T02:46:26.109Z,12.9
2022-11-29T02:47:34.379Z,12.9
2022-11-29T02:48:42.917Z,12.3
2022-11-29T02:49:51.264Z,12.3
2022-11-29T02:50:59.589Z,12.3
2022-11-29T02:52:08.133Z,13.4
2022-11-29T02:53:16.487Z,13.4
2022-11-29T02:54:24.821Z,13.4
2022-11-29T02:55:33.381Z,12.9
2022-11-29T02:56:41.711Z,12.9
2022-11-29T02:57:50.060Z,12.9
2022-11-29T02:58:58.616Z,12.7
2022-11-29T03:00:06.949Z,12.7
2022-11-29T03:01:15.336Z,12.7
2022-11-29T03:02:23.878Z,13.1
2022-11-29T03:03:32.180Z,13.1
2022-11-29T03:04:40.532Z,13.1
2022-11-29T03:05:49.062Z,12.9
2022-11-29T03:06:57.389Z,12.9
2022-11-29T03:08:05.740Z,12.9
2022-11-29T03:09:14.273Z,12.6
2022-11-29T03:10:22.609Z,12.6
2022-11-29T03:11:30.932Z,12.6
2022-11-29T03:12:39.476Z,12.8
2022-11-29T03:13:47.808Z,12.8
2022-11-29T03:14:56.137Z,12.8
2022-11-29T03:16:04.721Z,12.7
2022-11-29T03:17:13.002Z,12.7
2022-11-29T03:18:21.367Z,12.7
2022-11-29T03:19:29.877Z,12.6
2022-11-29T03:20:38.215Z,12.6
2022-11-29T03:21:46.538Z,12.6
2022-11-29T03:22:55.091Z,12.8
2022-11-29T03:24:03.414Z,12.8
2022-11-29T03:25:11.753Z,12.8
2022-11-29T03:26:20.287Z,13.4
2022-11-29T03:27:28.621Z,13.4
2022-11-29T03:28:36.958Z,13.4
2022-11-29T03:29:45.503Z,13.2
2022-11-29T03:30:53.880Z,13.2
2022-11-29T03:32:02.180Z,13.2
2022-11-29T03:33:10.721Z,13.5
2022-11-29T03:34:19.079Z,13.5
2022-11-29T03:35:27.383Z,13.5
2022-11-29T03:36:35.924Z,12.9
2022-11-29T03:37:44.261Z,12.9
2022-11-29T03:38:52.610Z,12.9
2022-11-29T03:40:01.162Z,12.5
2022-11-29T03:41:09.507Z,12.5
2022-11-29T03:42:17.836Z,12.5
2022-11-29T03:43:26.385Z,12.3
2022-11-29T03:44:34.714Z,12.3
2022-11-29T03:45:43.041Z,12.3
2022-11-29T03:46:51.582Z,15.5
2022-11-29T03:47:59.922Z,15.5
2022-11-29T03:49:08.252Z,15.5
2022-11-29T03:50:16.820Z,15.4
2022-11-29T03:51:25.125Z,15.4
2022-11-29T03:52:33.459Z,15.4
2022-11-29T03:53:42.014Z,15.8
2022-11-29T03:54:50.351Z,15.8
2022-11-29T03:55:58.676Z,15.8
2022-11-29T03:57:07.224Z,15.1
2022-11-29T03:58:15.557Z,15.1
2022-11-29T03:59:23.894Z,15.1
2022-11-29T04:00:32.441Z,16
2022-11-29T04:01:40.876Z,16
2022-11-29T04:02:49.130Z,16
2022-11-29T04:03:57.644Z,15.6
2022-11-29T04:05:05.979Z,15.6
2022-11-29T04:06:14.381Z,15.6
2022-11-29T04:07:22.890Z,15.4
2022-11-29T04:08:31.199Z,15.4
2022-11-29T04:09:39.542Z,15.4
2022-11-29T04:10:48.077Z,14.8
2022-11-29T04:11:56.419Z,14.8
2022-11-29T04:13:04.753Z,14.8
2022-11-29T04:14:13.307Z,16.299999
2022-11-29T04:15:21.635Z,16.299999
2022-11-29T04:16:29.966Z,16.299999
2022-11-29T04:17:38.519Z,16.6
2022-11-29T04:18:46.855Z,16.6
2022-11-29T04:19:55.183Z,16.6
2022-11-29T04:21:03.721Z,17.299999
2022-11-29T04:22:12.087Z,17.299999
2022-11-29T04:23:20.392Z,17.299999
2022-11-29T04:24:28.930Z,16.700001
2022-11-29T04:25:37.262Z,16.700001
2022-11-29T04:26:45.593Z,16.700001
2022-11-29T04:27:54.150Z,16.5
2022-11-29T04:29:02.479Z,16.5
2022-11-29T04:30:10.810Z,16.5
2022-11-29T04:31:19.398Z,15.2
2022-11-29T04:32:27.679Z,15.2
2022-11-29T04:33:36.069Z,15.2
2022-11-29T04:34:44.900Z,15
2022-11-29T04:35:52.940Z,15
2022-11-29T04:37:01.274Z,15
2022-11-29T04:38:09.843Z,15.2
2022-11-29T04:39:18.145Z,15.2
2022-11-29T04:40:26.481Z,15.2
2022-11-29T04:41:35.013Z,15
2022-11-29T04:42:43.357Z,15
2022-11-29T04:43:51.699Z,15
2022-11-29T04:45:00.232Z,15.7
2022-11-29T04:46:08.602Z,15.7
2022-11-29T04:47:16.903Z,15.7
2022-11-29T04:48:25.442Z,16.9
2022-11-29T04:49:33.774Z,16.9
2022-11-29T04:50:42.105Z,16.9
2022-11-29T04:51:50.638Z,16.5
2022-11-29T04:52:58.986Z,16.5
2022-11-29T04:54:07.341Z,16.5
2022-11-29T04:55:22.828Z,17.4
2022-11-29T04:56:24.169Z,17.4
2022-11-29T04:57:32.493Z,17.4
2022-11-29T04:58:41.055Z,18.299999
2022-11-29T04:59:49.378Z,18.299999
2022-11-29T05:00:57.723Z,18.299999
2022-11-29T05:02:06.320Z,18
2022-11-29T05:03:14.627Z,18
2022-11-29T05:04:22.958Z,18
2022-11-29T05:05:31.516Z,17.6
2022-11-29T05:06:39.850Z,17.6
2022-11-29T05:07:48.199Z,17.6
2022-11-29T05:08:56.740Z,17.6
2022-11-29T05:10:06.090Z,17.6
2022-11-29T05:11:14.394Z,17.6
2022-11-29T05:12:22.991Z,17.799999
2022-11-29T05:13:31.339Z,17.799999
2022-11-29T05:14:42.331Z,17.799999
2022-11-29T05:15:50.760Z,16.700001
2022-11-29T05:16:59.040Z,16.700001
2022-11-29T05:18:07.372Z,16.700001
2022-11-29T05:19:16.378Z,16.6
2022-11-29T05:20:24.683Z,16.6
2022-11-29T05:21:33.031Z,16.6
2022-11-29T05:22:41.582Z,16.9
2022-11-29T05:23:49.906Z,16.9
2022-11-29T05:24:58.255Z,16.9
2022-11-29T05:26:06.827Z,17
2022-11-29T05:27:15.134Z,17
2022-11-29T05:28:23.481Z,17
2022-11-29T05:29:32.041Z,17.700001
2022-11-29T05:30:40.373Z,17.700001
2022-11-29T05:31:48.720Z,17.700001
2022-11-29T05:32:57.292Z,16.700001
2022-11-29T05:34:05.619Z,16.700001
2022-11-29T05:35:13.941Z,16.700001
2022-11-29T05:36:22.476Z,17.1
2022-11-29T05:37:30.802Z,17.1
2022-11-29T05:38:39.144Z,17.1
2022-11-29T05:39:47.685Z,15.8
2022-11-29T05:40:56.025Z,15.8
2022-11-29T05:42:04.385Z,15.8
2022-11-29T05:43:12.902Z,16.700001
2022-11-29T05:44:21.233Z,16.700001
2022-11-29T05:45:29.572Z,16.700001
2022-11-29T05:46:38.133Z,16.5
2022-11-29T05:47:46.445Z,16.5
2022-11-29T05:48:54.782Z,16.5
2022-11-29T05:50:03.317Z,17.1
2022-11-29T05:51:11.662Z,17.1
2022-11-29T05:52:19.991Z,17.1
2022-11-29T05:53:28.533Z,16.6
2022-11-29T05:54:36.895Z,16.6
2022-11-29T05:55:45.230Z,16.6
2022-11-29T05:56:53.757Z,17.1
2022-11-29T05:58:02.166Z,17.1
2022-11-29T05:59:10.499Z,17.1
2022-11-29T06:00:19.045Z,17.700001
2022-11-29T06:01:27.379Z,17.700001
2022-11-29T06:02:35.753Z,17.700001
2022-11-29T06:03:44.254Z,17.4
2022-11-29T06:04:52.583Z,17.4
2022-11-29T06:06:00.909Z,17.4
2022-11-29T06:07:09.453Z,17.200001
2022-11-29T06:08:17.780Z,17.200001
2022-11-29T06:09:26.108Z,17.200001
2022-11-29T06:10:34.647Z,18.200001
2022-11-29T06:11:42.971Z,18.200001
2022-11-29T06:12:51.307Z,18.200001
2022-11-29T06:13:59.869Z,17.1
2022-11-29T06:15:08.169Z,17.1
2022-11-29T06:16:16.541Z,17.1
2022-11-29T06:17:25.057Z,17.700001
2022-11-29T06:18:33.407Z,17.700001
2022-11-29T06:19:41.726Z,17.700001
2022-11-29T06:20:50.285Z,17.5
2022-11-29T06:21:58.617Z,17.5
2022-11-29T06:23:06.959Z,17.5
2022-11-29T06:24:15.496Z,18.200001
2022-11-29T06:25:23.819Z,18.200001
2022-11-29T06:26:32.172Z,18.200001
2022-11-29T06:27:40.706Z,16.4
2022-11-29T06:28:49.042Z,16.4
2022-11-29T06:29:57.385Z,16.4
2022-11-29T06:31:05.968Z,16.700001
2022-11-29T06:32:14.247Z,16.700001
2022-11-29T06:33:22.587Z,16.700001
2022-11-29T06:34:31.169Z,16.4
2022-11-29T06:35:39.499Z,16.4
2022-11-29T06:36:47.833Z,16.4
2022-11-29T06:37:56.387Z,16.700001
2022-11-29T06:39:04.709Z,16.700001
2022-11-29T06:40:13.033Z,16.700001
2022-11-29T06:41:21.585Z,16.700001
2022-11-29T06:42:29.903Z,16.700001
2022-11-29T06:43:38.247Z,16.700001
2022-11-29T06:44:47.124Z,15.3
2022-11-29T06:45:55.135Z,15.3
2022-11-29T06:47:03.483Z,15.3
2022-11-29T06:48:12.001Z,16.6
2022-11-29T06:49:20.336Z,16.6
2022-11-29T06:50:28.670Z,16.6
2022-11-29T06:51:37.217Z,16.6
2022-11-29T06:52:45.549Z,16.6
2022-11-29T06:53:53.884Z,16.6
2022-11-29T06:55:02.427Z,16
2022-11-29T06:56:10.763Z,16
2022-11-29T06:57:19.100Z,16
2022-11-29T06:58:31.532Z,15.6
2022-11-29T06:59:35.973Z,15.6
2022-11-29T07:00:44.329Z,15.6
2022-11-29T07:01:52.878Z,15.4
2022-11-29T07:03:01.180Z,15.4
2022-11-29T07:04:09.509Z,15.4
2022-11-29T07:05:18.053Z,15.8
2022-11-29T07:06:26.380Z,15.8
2022-11-29T07:07:34.738Z,15.8
2022-11-29T07:08:43.268Z,17
2022-11-29T07:09:51.601Z,17
2022-11-29T07:10:59.929Z,17
2022-11-29T07:12:08.470Z,16.700001
2022-11-29T07:13:16.814Z,16.700001
2022-11-29T07:14:25.140Z,16.700001
2022-11-29T07:15:33.695Z,17.6
2022-11-29T07:16:42.092Z,17.6
2022-11-29T07:17:50.383Z,17.6
2022-11-29T07:18:58.900Z,18.1
2022-11-29T07:20:07.230Z,18.1
2022-11-29T07:21:15.564Z,18.1
2022-11-29T07:22:24.105Z,18.4
2022-11-29T07:23:32.441Z,18.4
2022-11-29T07:24:40.778Z,18.4
2022-11-29T07:25:49.327Z,18.5
2022-11-29T07:26:59.660Z,18.5
2022-11-29T07:28:05.996Z,18.5
2022-11-29T07:29:14.531Z,17.799999
2022-11-29T07:30:22.864Z,17.799999
2022-11-29T07:31:31.243Z,17.799999
2022-11-29T07:32:39.733Z,17.6
2022-11-29T07:33:48.092Z,17.6
2022-11-29T07:34:56.396Z,17.6
2022-11-29T07:36:04.930Z,17.5
2022-11-29T07:37:13.267Z,17.5
2022-11-29T07:38:21.595Z,17.5
2022-11-29T07:39:30.120Z,17.700001
2022-11-29T07:40:38.445Z,17.700001
2022-11-29T07:41:46.771Z,17.700001
2022-11-29T07:42:55.310Z,17.1
2022-11-29T07:44:03.639Z,17.1
2022-11-29T07:45:11.965Z,17.1
2022-11-29T07:46:20.517Z,16.799999
2022-11-29T07:47:32.671Z,16.799999
2022-11-29T07:48:37.162Z,16.799999
2022-11-29T07:49:45.742Z,16.799999
2022-11-29T07:50:54.012Z,16.799999
2022-11-29T07:52:02.336Z,16.799999
2022-11-29T07:53:10.877Z,17.299999
2022-11-29T07:54:19.226Z,17.299999
2022-11-29T07:55:27.588Z,17.299999
2022-11-29T07:56:36.109Z,17.4
2022-11-29T07:57:44.436Z,17.4
2022-11-29T07:58:52.826Z,17.4
2022-11-29T08:00:01.315Z,17.1
2022-11-29T08:01:09.699Z,17.1
2022-11-29T08:02:17.994Z,17.1
2022-11-29T08:03:26.508Z,16.9
2022-11-29T08:04:34.827Z,16.9
2022-11-29T08:05:43.170Z,16.9
2022-11-29T08:06:51.682Z,16
2022-11-29T08:08:00.055Z,16
2022-11-29T08:09:08.335Z,16
2022-11-29T08:10:16.881Z,16.5
2022-11-29T08:11:25.198Z,16.5
2022-11-29T08:12:33.525Z,16.5
2022-11-29T08:13:42.072Z,17.200001
2022-11-29T08:14:50.409Z,17.200001
2022-11-29T08:15:58.811Z,17.200001
2022-11-29T08:17:07.306Z,17.1
2022-11-29T08:18:15.646Z,17.1
2022-11-29T08:19:23.971Z,17.1
2022-11-29T08:20:32.509Z,15.8
2022-11-29T08:21:40.860Z,15.8
2022-11-29T08:22:49.169Z,15.8
2022-11-29T08:23:57.724Z,16.799999
2022-11-29T08:25:06.084Z,16.799999
2022-11-29T08:26:14.421Z,16.799999
2022-11-29T08:27:22.949Z,16.4
2022-11-29T08:28:31.290Z,16.4
2022-11-29T08:29:39.619Z,16.4
2022-11-29T08:30:48.147Z,16.5
2022-11-29T08:31:56.601Z,16.5
2022-11-29T08:33:04.840Z,16.5
2022-11-29T08:34:13.402Z,16.700001
2022-11-29T08:35:21.730Z,16.700001
2022-11-29T08:36:30.048Z,16.700001
2022-11-29T08:37:38.621Z,16
2022-11-29T08:38:46.929Z,16
2022-11-29T08:39:55.349Z,16
2022-11-29T08:41:03.795Z,15.3
2022-11-29T08:42:12.123Z,15.3
2022-11-29T08:43:20.459Z,15.3
2022-11-29T08:44:28.995Z,16.700001
2022-11-29T08:45:37.333Z,16.700001
2022-11-29T08:46:45.645Z,16.700001
2022-11-29T08:47:54.187Z,16.799999
2022-11-29T08:49:02.515Z,16.799999
2022-11-29T08:50:10.846Z,16.799999
2022-11-29T08:51:19.375Z,16.4
2022-11-29T08:52:27.709Z,16.4
2022-11-29T08:53:36.068Z,16.4
2022-11-29T08:54:44.951Z,16.299999
2022-11-29T08:55:52.910Z,16.299999
2022-11-29T08:58:09.786Z,16.4
2022-11-29T08:59:18.119Z,16.4
2022-11-29T09:00:26.453Z,16.4
2022-11-29T09:01:35.124Z,15.8
2022-11-29T09:02:43.422Z,15.8
2022-11-29T09:03:51.672Z,15.8
2022-11-29T09:05:00.203Z,16.5
2022-11-29T09:06:12.138Z,16.5
2022-11-29T09:07:16.919Z,16.5
2022-11-29T09:08:25.424Z,15.9
2022-11-29T09:09:33.780Z,15.9
2022-11-29T09:10:42.077Z,15.9
2022-11-29T09:11:50.616Z,17.299999
2022-11-29T09:12:58.944Z,17.299999
2022-11-29T09:14:07.272Z,17.299999
2022-11-29T09:15:15.809Z,17.200001
2022-11-29T09:16:24.224Z,17.200001
2022-11-29T09:17:32.494Z,17.200001
2022-11-29T09:18:41.042Z,16.4
2022-11-29T09:19:49.365Z,16.4
2022-11-29T09:20:57.710Z,16.4
2022-11-29T09:22:06.257Z,16.9
2022-11-29T09:23:14.615Z,16.9
2022-11-29T09:24:22.950Z,16.9
2022-11-29T09:25:31.505Z,15.9
2022-11-29T09:26:39.800Z,15.9
2022-11-29T09:27:48.127Z,15.9
2022-11-29T09:28:56.658Z,16.5
2022-11-29T09:30:04.984Z,16.5
2022-11-29T09:31:13.371Z,16.5
2022-11-29T09:32:21.851Z,16.5
2022-11-29T09:33:30.195Z,16.5
2022-11-29T09:34:38.540Z,16.5
2022-11-29T09:35:47.068Z,17
2022-11-29T09:36:55.387Z,17
2022-11-29T09:38:03.729Z,17
2022-11-29T09:39:12.256Z,16.4
2022-11-29T09:40:20.612Z,16.4
2022-11-29T09:41:28.946Z,16.4
2022-11-29T09:42:37.458Z,16.4
2022-11-29T09:43:45.797Z,16.4
2022-11-29T09:44:54.120Z,16.4
2022-11-29T09:46:02.702Z,16.9
2022-11-29T09:47:11.001Z,16.9
2022-11-29T09:48:19.357Z,16.9
2022-11-29T09:49:27.895Z,15.9
2022-11-29T09:50:36.235Z,15.9
2022-11-29T09:51:44.718Z,15.9
2022-11-29T09:52:53.099Z,16
2022-11-29T09:54:01.433Z,16
2022-11-29T09:55:09.765Z,16
2022-11-29T09:56:18.307Z,15.4
2022-11-29T09:57:26.672Z,15.4
2022-11-29T09:58:34.984Z,15.4
2022-11-29T09:59:43.524Z,15.4
2022-11-29T10:00:51.898Z,15.4
2022-11-29T10:02:00.247Z,15.4
2022-11-29T10:03:08.734Z,15.5
2022-11-29T10:04:17.080Z,15.5
2022-11-29T10:05:25.423Z,15.5
2022-11-29T10:06:33.968Z,15.8
2022-11-29T10:07:42.313Z,15.8
2022-11-29T10:08:50.636Z,15.8
2022-11-29T10:09:59.175Z,16.799999
2022-11-29T10:11:07.504Z,16.799999
2022-11-29T10:12:15.842Z,16.799999
2022-11-29T10:13:24.421Z,16.1
2022-11-29T10:14:32.730Z,16.1
2022-11-29T10:15:41.070Z,16.1
2022-11-29T10:16:49.667Z,16
2022-11-29T10:17:57.937Z,16
2022-11-29T10:19:06.267Z,16
2022-11-29T10:20:14.811Z,15.7
2022-11-29T10:21:23.145Z,15.7
2022-11-29T10:22:31.482Z,15.7
2022-11-29T10:23:40.048Z,15.3
2022-11-29T10:24:48.473Z,15.3
2022-11-29T10:25:56.729Z,15.3
2022-11-29T10:27:05.272Z,16.299999
2022-11-29T10:28:13.630Z,16.299999
2022-11-29T10:29:21.990Z,16.299999
2022-11-29T10:30:30.528Z,15.9
2022-11-29T10:31:38.848Z,15.9
2022-11-29T10:32:47.250Z,15.9
2022-11-29T10:33:55.782Z,16.4
2022-11-29T10:35:04.111Z,16.4
2022-11-29T10:36:12.449Z,16.4
2022-11-29T10:37:20.992Z,17
2022-11-29T10:38:31.029Z,17
2022-11-29T10:39:37.657Z,17
2022-11-29T10:40:46.199Z,16.200001
2022-11-29T10:41:54.551Z,16.200001
2022-11-29T10:43:02.904Z,16.200001
2022-11-29T10:44:11.433Z,15.3
2022-11-29T10:45:19.825Z,15.3
2022-11-29T10:46:28.133Z,15.3
2022-11-29T10:47:36.664Z,15.7
2022-11-29T10:48:45.018Z,15.7
2022-11-29T10:49:53.340Z,15.7
2022-11-29T10:51:01.881Z,15.7
2022-11-29T10:52:10.241Z,15.7
2022-11-29T10:53:18.577Z,15.7
2022-11-29T10:54:27.124Z,16.200001
2022-11-29T10:55:35.441Z,16.200001
2022-11-29T10:56:43.783Z,16.200001
2022-11-29T10:57:52.336Z,14.6
2022-11-29T10:59:00.667Z,14.6
2022-11-29T11:00:08.999Z,14.6
2022-11-29T11:01:17.579Z,14.5
2022-11-29T11:02:25.871Z,14.5
2022-11-29T11:03:34.228Z,14.5
2022-11-29T11:04:42.991Z,14
2022-11-29T11:05:51.162Z,14
2022-11-29T11:06:59.445Z,14
2022-11-29T11:08:07.993Z,15.4
2022-11-29T11:09:16.323Z,15.4
2022-11-29T11:10:24.669Z,15.4
2022-11-29T11:11:33.210Z,15.5
2022-11-29T11:12:41.548Z,15.5
2022-11-29T11:13:49.898Z,15.5
2022-11-29T11:14:58.429Z,14.2
2022-11-29T11:16:06.776Z,14.2
2022-11-29T11:17:15.127Z,14.2
2022-11-29T11:18:23.649Z,14.9
2022-11-29T11:19:31.993Z,14.9
2022-11-29T11:20:40.323Z,14.9
2022-11-29T11:21:48.870Z,13.6
2022-11-29T11:22:57.198Z,13.6
2022-11-29T11:24:05.524Z,13.6
2022-11-29T11:25:14.062Z,12.5
2022-11-29T11:26:22.397Z,12.5
2022-11-29T11:27:30.729Z,12.5
2022-11-29T11:28:39.312Z,14.8
2022-11-29T11:29:47.634Z,14.8
2022-11-29T11:30:55.989Z,14.8
2022-11-29T11:32:04.505Z,11
2022-11-29T11:33:12.894Z,11
2022-11-29T11:34:21.210Z,11
2022-11-29T11:35:29.756Z,8.9
2022-11-29T11:36:38.084Z,8.9
2022-11-29T11:37:46.429Z,8.9
2022-11-29T11:38:54.993Z,8.7
2022-11-29T11:40:03.348Z,8.7
2022-11-29T11:41:11.680Z,8.7
2022-11-29T11:42:20.223Z,9.1
2022-11-29T11:43:28.567Z,9.1
2022-11-29T11:44:52.281Z,9.1
2022-11-29T11:45:45.454Z,9.7
2022-11-29T11:46:53.792Z,9.7
2022-11-29T11:48:02.134Z,9.7
2022-11-29T11:49:10.714Z,9.1
2022-11-29T11:50:19.022Z,9.1
2022-11-29T11:51:27.362Z,9.1
2022-11-29T11:52:40.093Z,9.7
2022-11-29T11:53:44.252Z,9.7
2022-11-29T11:54:52.582Z,9.7
2022-11-29T11:56:01.134Z,8.9
2022-11-29T11:57:09.458Z,8.9
2022-11-29T11:58:17.813Z,8.9
2022-11-29T11:59:26.360Z,9
2022-11-29T12:01:02.189Z,9
2022-11-29T12:01:43.025Z,9
2022-11-29T12:02:51.669Z,8.5
2022-11-29T12:03:59.942Z,8.5
2022-11-29T12:05:08.321Z,8.5
2022-11-29T12:06:16.861Z,9.3
2022-11-29T12:07:38.912Z,9.3
2022-11-29T12:08:33.588Z,9.3
2022-11-29T12:09:42.102Z,9
2022-11-29T12:10:50.422Z,9
2022-11-29T12:11:58.767Z,9
2022-11-29T12:13:07.312Z,8.3
2022-11-29T12:14:15.662Z,8.3
2022-11-29T12:15:23.994Z,8.3
2022-11-29T12:16:32.555Z,9.2
2022-11-29T12:17:40.882Z,9.2
2022-11-29T12:18:49.235Z,9.2
2022-11-29T12:19:57.769Z,8.1
2022-11-29T12:21:06.130Z,8.1
2022-11-29T12:22:14.452Z,8.1
2022-11-29T12:23:22.997Z,8.1
2022-11-29T12:24:31.338Z,8.1
2022-11-29T12:25:39.748Z,8.1
2022-11-29T12:26:56.758Z,7.7
2022-11-29T12:27:56.567Z,7.7
2022-11-29T12:29:04.917Z,7.7
2022-11-29T12:30:13.455Z,8.1
2022-11-29T12:31:21.843Z,8.1
2022-11-29T12:32:30.134Z,8.1
2022-11-29T12:33:38.682Z,8.1
2022-11-29T12:34:47.180Z,8.1
2022-11-29T12:35:55.365Z,8.1
2022-11-29T12:37:03.941Z,8
2022-11-29T12:38:12.251Z,8
2022-11-29T12:39:20.582Z,8
2022-11-29T12:40:29.120Z,7.8
2022-11-29T12:41:37.458Z,7.8
2022-11-29T12:42:45.807Z,7.8
2022-11-29T12:43:54.363Z,8.4
2022-11-29T12:45:02.693Z,8.4
2022-11-29T12:46:11.097Z,8.4
2022-11-29T12:47:36.357Z,8.2
2022-11-29T12:48:27.877Z,8.2
2022-11-29T12:49:36.213Z,8.2
2022-11-29T12:50:44.747Z,8.4
2022-11-29T12:51:53.082Z,8.4
2022-11-29T12:53:01.443Z,8.4
2022-11-29T12:54:09.958Z,8.7
2022-11-29T12:55:18.292Z,8.7
2022-11-29T12:56:26.641Z,8.7
2022-11-29T12:57:35.202Z,8.4
2022-11-29T12:58:45.961Z,8.4
2022-11-29T12:59:51.878Z,8.4
2022-11-29T13:01:00.428Z,12.6
2022-11-29T13:02:08.830Z,12.6
2022-11-29T13:03:17.126Z,12.6
2022-11-29T13:04:25.661Z,11
2022-11-29T13:05:34.000Z,11
2022-11-29T13:06:42.347Z,11
2022-11-29T13:07:50.924Z,11.9
2022-11-29T13:08:59.259Z,11.9
2022-11-29T13:10:07.565Z,11.9
2022-11-29T13:11:16.120Z,11.8
2022-11-29T13:12:24.451Z,11.8
2022-11-29T13:13:32.791Z,11.8
2022-11-29T13:14:42.951Z,11.3
2022-11-29T13:15:49.895Z,11.3
2022-11-29T13:16:57.989Z,11.3
2022-11-29T13:18:06.542Z,11.7
2022-11-29T13:19:14.882Z,11.7
2022-11-29T13:20:23.214Z,11.7
2022-11-29T13:21:31.754Z,14.1
2022-11-29T13:22:40.096Z,14.1
2022-11-29T13:24:10.547Z,14.1
2022-11-29T13:24:56.997Z,13.5
2022-11-29T13:26:05.307Z,13.5
2022-11-29T13:27:13.639Z,13.5
2022-11-29T13:28:22.197Z,12
2022-11-29T13:29:30.526Z,12
2022-11-29T13:30:38.892Z,12
2022-11-29T13:31:47.415Z,14.4
2022-11-29T13:32:55.755Z,14.4
2022-11-29T13:34:04.100Z,14.4
2022-11-29T13:35:12.650Z,13.8
2022-11-29T13:36:20.984Z,13.8
2022-11-29T13:37:29.308Z,13.8
2022-11-29T13:38:37.875Z,13
2022-11-29T13:39:46.197Z,13
2022-11-29T13:40:54.562Z,13
2022-11-29T13:42:03.068Z,9.1
2022-11-29T13:43:11.410Z,9.1
2022-11-29T13:44:19.742Z,9.1
2022-11-29T13:45:28.284Z,8.4
2022-11-29T13:46:36.717Z,8.4
2022-11-29T13:47:44.984Z,8.4
2022-11-29T13:48:53.530Z,8.5
2022-11-29T13:50:01.887Z,8.5
2022-11-29T13:51:10.226Z,8.5
2022-11-29T13:52:18.773Z,11.5
2022-11-29T13:53:27.133Z,11.5
2022-11-29T13:54:35.454Z,11.5
2022-11-29T13:55:43.998Z,11.2
2022-11-29T13:56:52.349Z,11.2
2022-11-29T13:58:16.137Z,11.2
2022-11-29T13:59:09.219Z,10.3
2022-11-29T14:00:17.540Z,10.3
2022-11-29T14:01:25.897Z,10.3
2022-11-29T14:02:34.473Z,13.1
2022-11-29T14:03:42.802Z,13.1
2022-11-29T14:04:51.134Z,13.1
2022-11-29T14:05:59.691Z,9.5
2022-11-29T14:07:08.021Z,9.5
2022-11-29T14:08:17.999Z,9.5
2022-11-29T14:09:24.923Z,8.5
2022-11-29T14:10:33.254Z,8.5
2022-11-29T14:11:41.597Z,8.5
2022-11-29T14:12:50.165Z,8.7
2022-11-29T14:13:58.483Z,8.7
2022-11-29T14:15:06.815Z,8.7
2022-11-29T14:16:15.382Z,9.2
2022-11-29T14:17:23.696Z,9.2
2022-11-29T14:18:32.049Z,9.2
2022-11-29T14:19:40.591Z,8.7
2022-11-29T14:20:48.919Z,8.7
2022-11-29T14:21:57.265Z,8.7
2022-11-29T14:23:05.844Z,9.3
2022-11-29T14:24:14.171Z,9.3
2022-11-29T14:25:49.524Z,9.3
2022-11-29T14:26:31.047Z,9.7
2022-11-29T14:27:39.389Z,9.7
2022-11-29T14:28:47.781Z,9.7
2022-11-29T14:29:56.297Z,9.1
2022-11-29T15:03:53.811Z,0
2022-11-29T15:05:02.093Z,0
2022-11-29T15:06:10.426Z,0
2022-11-29T15:07:19.054Z,11.3
2022-11-29T15:08:27.387Z,11.3
2022-11-29T15:09:35.761Z,11.3
2022-11-29T15:10:44.382Z,13.4
2022-11-29T15:11:52.755Z,13.4
2022-11-29T15:13:01.114Z,13.4
2022-11-29T15:14:09.673Z,11.8
2022-11-29T15:15:18.036Z,11.8
2022-11-29T15:16:26.487Z,11.8
2022-11-29T15:17:35.069Z,13
2022-11-29T15:18:43.439Z,13
2022-11-29T15:19:51.824Z,13
2022-11-29T15:21:00.367Z,12
2022-11-29T15:22:08.757Z,12
2022-11-29T15:23:17.099Z,12
2022-11-29T15:24:28.658Z,12.3
2022-11-29T15:25:34.037Z,12.3
2022-11-29T15:26:42.397Z,12.3
2022-11-29T15:27:50.970Z,11.8
2022-11-29T15:28:59.365Z,11.8
2022-11-29T15:30:07.769Z,11.8
2022-11-29T15:31:16.362Z,11.4